createdAt,value
2019-06-11T00:00:32.575Z,70.50
2019-06-11T00:03:05.479Z,71.30
2019-06-11T00:05:58.877Z,71.10
2019-06-11T00:08:45.167Z,70.60
2019-06-11T00:11:34.933Z,70.70
2019-06-11T00:14:13.212Z,70.60
2019-06-11T00:16:47.855Z,71.60
2019-06-11T00:22:36.880Z,69.90
2019-06-11T00:25:08.544Z,71.40
2019-06-11T00:30:33.020Z,71.30
2019-06-11T00:33:08.905Z,70.90
2019-06-11T00:35:45.972Z,70.20
2019-06-11T00:38:22.871Z,70.80
2019-06-11T00:41:08.810Z,69.90
2019-06-11T00:43:42.834Z,70.80
2019-06-11T00:46:12.717Z,71.20
2019-06-11T00:49:08.400Z,70.60
2019-06-11T00:51:45.167Z,72.80
2019-06-11T00:54:23.266Z,73.10
2019-06-11T00:56:57.018Z,72.60
2019-06-11T00:59:33.321Z,73.20
2019-06-11T01:02:10.699Z,72.50
2019-06-11T01:05:05.528Z,71.80
2019-06-11T01:07:39.059Z,72.50
2019-06-11T01:13:13.991Z,72.90
2019-06-11T01:15:48.462Z,72.90
2019-06-11T01:18:24.025Z,74.70
2019-06-11T01:21:06.058Z,75.10
2019-06-11T01:26:29.126Z,75.60
2019-06-11T01:29:05.463Z,78.60
2019-06-11T01:31:42.680Z,76.00
2019-06-11T01:36:52.375Z,77.90
2019-06-11T01:39:28.218Z,77.40
2019-06-11T01:42:02.451Z,77.20
2019-06-11T01:44:36.883Z,76.40
2019-06-11T01:47:13.771Z,78.90
2019-06-11T01:49:52.606Z,79.00
2019-06-11T01:52:47.884Z,77.00
2019-06-11T01:55:25.448Z,77.40
2019-06-11T01:58:02.540Z,78.90
2019-06-11T02:00:37.072Z,77.40
2019-06-11T02:03:29.093Z,77.50
2019-06-11T02:05:45.424Z,77.10
2019-06-11T02:08:16.982Z,78.10
2019-06-11T02:10:52.938Z,78.10
2019-06-11T02:13:42.777Z,77.40
2019-06-11T02:16:20.359Z,78.00
2019-06-11T02:18:53.065Z,79.10
2019-06-11T02:24:29.392Z,80.90
2019-06-11T02:27:06.994Z,77.60
2019-06-11T02:29:47.639Z,79.60
2019-06-11T02:32:39.171Z,78.10
2019-06-11T02:35:34.797Z,80.10
2019-06-11T02:37:52.152Z,78.50
2019-06-11T02:40:28.496Z,77.50
2019-06-11T02:43:04.738Z,78.00
2019-06-11T02:45:36.279Z,78.30
2019-06-11T02:50:41.948Z,79.60
2019-06-11T02:56:17.078Z,79.80
2019-06-11T02:58:43.340Z,80.80
2019-06-11T03:01:35.335Z,78.30
2019-06-11T03:06:45.521Z,77.50
2019-06-11T03:09:28.159Z,80.70
2019-06-11T03:12:07.551Z,81.00
2019-06-11T03:14:52.061Z,81.80
2019-06-11T03:17:40.999Z,78.10
2019-06-11T03:20:20.362Z,80.90
2019-06-11T03:23:03.339Z,79.80
2019-06-11T03:25:35.470Z,78.80
2019-06-11T03:28:14.168Z,85.40
2019-06-11T03:31:18.151Z,80.30
2019-06-11T03:33:47.887Z,83.30
2019-06-11T03:38:55.241Z,85.10
2019-06-11T03:43:34.698Z,84.00
2019-06-11T03:51:35.655Z,84.90
2019-06-11T03:54:10.995Z,85.30
2019-06-11T03:56:51.912Z,83.30
2019-06-11T03:59:43.831Z,83.80
2019-06-11T04:02:28.268Z,79.90
2019-06-11T04:04:53.474Z,78.50
2019-06-11T04:07:42.997Z,85.00
2019-06-11T04:10:02.187Z,79.10
2019-06-11T04:12:34.163Z,78.80
2019-06-11T04:20:05.589Z,79.00
2019-06-11T04:22:34.313Z,79.40
2019-06-11T04:25:05.918Z,84.60
2019-06-11T04:27:34.394Z,87.20
2019-06-11T04:32:34.510Z,79.60
2019-06-11T04:35:02.201Z,84.20
2019-06-11T04:37:54.770Z,85.10
2019-06-11T04:42:35.585Z,84.70
2019-06-11T04:45:02.404Z,84.30
2019-06-11T04:47:42.166Z,86.30
2019-06-11T04:55:08.288Z,80.70
2019-06-11T05:00:18.417Z,80.20
2019-06-11T05:05:10.922Z,79.80
2019-06-11T05:07:55.770Z,79.60
2019-06-11T05:10:08.428Z,80.70
2019-06-11T05:15:06.409Z,85.80
2019-06-11T05:20:07.218Z,79.60
2019-06-11T05:22:37.030Z,80.40
2019-06-11T05:25:05.082Z,88.60
2019-06-11T05:27:35.109Z,88.40
2019-06-11T05:30:16.400Z,81.30
2019-06-11T05:32:36.939Z,80.50
2019-06-11T05:38:03.518Z,88.40
2019-06-11T05:40:10.813Z,88.40
2019-06-11T05:42:41.474Z,83.50
2019-06-11T05:45:11.900Z,80.90
2019-06-11T05:47:56.115Z,85.10
2019-06-11T05:50:27.355Z,80.50
2019-06-11T05:55:27.477Z,86.10
2019-06-11T05:57:55.254Z,87.10
2019-06-11T06:00:27.839Z,80.80
2019-06-11T06:02:57.112Z,80.00
2019-06-11T06:05:27.766Z,80.70
2019-06-11T06:08:13.908Z,83.60
2019-06-11T06:10:32.513Z,80.90
2019-06-11T06:13:00.699Z,80.60
2019-06-11T06:18:01.082Z,80.50
2019-06-11T06:25:41.066Z,81.20
2019-06-11T06:28:05.707Z,77.60
2019-06-11T06:30:34.947Z,84.80
2019-06-11T06:38:10.996Z,81.90
2019-06-11T06:43:10.731Z,80.40
2019-06-11T06:45:40.515Z,81.50
2019-06-11T06:48:11.259Z,75.60
2019-06-11T06:50:40.815Z,79.50
2019-06-11T06:53:11.275Z,80.30
2019-06-11T06:56:01.397Z,78.90
2019-06-11T07:01:00.647Z,68.70
2019-06-11T07:03:37.741Z,75.80
2019-06-11T07:06:05.204Z,71.50
2019-06-11T07:08:53.089Z,72.50
2019-06-11T07:11:02.618Z,67.50
2019-06-11T07:13:34.617Z,66.80
2019-06-11T07:16:04.851Z,64.80
2019-06-11T07:18:37.029Z,68.00
2019-06-11T07:28:56.819Z,60.30
2019-06-11T07:31:24.821Z,64.80
2019-06-11T07:33:53.340Z,57.50
2019-06-11T07:36:21.895Z,58.40
2019-06-11T07:39:14.797Z,60.60
2019-06-11T07:41:23.432Z,62.20
2019-06-11T07:46:35.134Z,63.80
2019-06-11T07:48:59.858Z,58.50
2019-06-11T07:56:22.812Z,62.40
2019-06-11T07:59:00.796Z,65.00
2019-06-11T08:01:32.897Z,65.90
2019-06-11T08:04:02.607Z,59.00
2019-06-11T08:06:39.990Z,63.80
2019-06-11T08:09:11.830Z,57.10
2019-06-11T08:11:49.862Z,60.80
2019-06-11T08:14:15.660Z,63.40
2019-06-11T08:16:50.852Z,59.50
2019-06-11T08:22:04.137Z,59.60
2019-06-11T08:29:15.885Z,56.90
2019-06-11T08:31:46.757Z,59.10
2019-06-11T08:36:50.819Z,59.60
2019-06-11T08:39:21.791Z,56.90
2019-06-11T08:44:20.912Z,61.10
2019-06-11T08:46:50.948Z,58.80
2019-06-11T08:49:24.857Z,59.20
2019-06-11T08:51:57.441Z,60.90
2019-06-11T08:54:31.142Z,62.40
2019-06-11T08:59:33.265Z,66.40
2019-06-11T09:02:03.182Z,66.10
2019-06-11T09:04:34.328Z,62.90
2019-06-11T09:09:43.585Z,69.90
2019-06-11T09:12:30.464Z,68.10
2019-06-11T09:15:00.953Z,66.70
2019-06-11T09:20:02.151Z,57.40
2019-06-11T09:22:44.533Z,62.00
2019-06-11T09:25:12.623Z,57.50
2019-06-11T09:27:43.320Z,61.10
2019-06-11T09:30:14.691Z,57.30
2019-06-11T09:37:46.017Z,62.90
2019-06-11T09:40:14.053Z,57.30
2019-06-11T09:42:49.692Z,56.60
2019-06-11T09:45:21.185Z,61.90
2019-06-11T09:47:59.656Z,58.60
2019-06-11T09:52:54.207Z,59.00
2019-06-11T09:55:22.761Z,59.60
2019-06-11T10:00:23.111Z,52.70
2019-06-11T10:02:53.857Z,58.10
2019-06-11T10:05:24.648Z,58.80
2019-06-11T10:07:54.396Z,50.10
2019-06-11T10:10:37.214Z,59.20
2019-06-11T10:12:55.349Z,52.20
2019-06-11T10:15:24.203Z,48.20
2019-06-11T10:17:52.822Z,45.80
2019-06-11T10:20:26.861Z,56.30
2019-06-11T10:22:57.011Z,48.20
2019-06-11T10:25:26.084Z,51.80
2019-06-11T10:30:30.333Z,56.30
2019-06-11T10:32:58.273Z,56.80
2019-06-11T10:35:27.988Z,56.20
2019-06-11T10:38:00.316Z,58.30
2019-06-11T10:40:30.609Z,58.50
2019-06-11T10:45:34.591Z,59.20
2019-06-11T10:48:06.543Z,53.10
2019-06-11T10:50:37.410Z,60.60
2019-06-11T10:53:06.906Z,59.60
2019-06-11T10:55:35.434Z,58.30
2019-06-11T10:58:10.445Z,59.70
2019-06-11T11:00:40.502Z,61.80
2019-06-11T11:03:11.343Z,55.20
2019-06-11T11:05:41.110Z,60.90
2019-06-11T11:08:11.065Z,62.70
2019-06-11T11:10:40.657Z,53.90
2019-06-11T11:13:14.118Z,62.00
2019-06-11T11:15:42.177Z,56.80
2019-06-11T11:18:12.926Z,62.00
2019-06-11T11:20:42.010Z,53.40
2019-06-11T11:23:11.708Z,54.70
2019-06-11T11:25:41.605Z,58.90
2019-06-11T11:30:41.980Z,56.90
2019-06-11T11:35:42.016Z,56.40
2019-06-11T11:38:10.893Z,57.40
2019-06-11T11:40:49.005Z,58.20
2019-06-11T11:43:20.955Z,53.80
2019-06-11T11:45:53.574Z,53.50
2019-06-11T11:50:51.289Z,54.30
2019-06-11T11:53:36.212Z,57.40
2019-06-11T11:56:07.838Z,59.00
2019-06-11T11:58:37.167Z,51.80
2019-06-11T12:01:05.329Z,59.30
2019-06-11T12:06:06.151Z,57.40
2019-06-11T12:11:05.943Z,53.20
2019-06-11T12:13:34.219Z,56.40
2019-06-11T12:18:35.164Z,58.30
2019-06-11T12:21:06.312Z,58.90
2019-06-11T12:23:34.508Z,61.30
2019-06-11T12:26:04.487Z,55.00
2019-06-11T12:28:32.578Z,53.90
2019-06-11T12:31:03.595Z,52.50
2019-06-11T12:33:32.679Z,51.90
2019-06-11T12:36:05.232Z,51.30
2019-06-11T12:41:08.485Z,57.60
2019-06-11T12:43:37.554Z,56.50
2019-06-11T12:46:06.183Z,55.00
2019-06-11T12:48:41.405Z,57.60
2019-06-11T12:51:17.837Z,55.50
2019-06-11T12:53:42.266Z,57.10
2019-06-11T12:56:15.917Z,57.50
2019-06-11T13:06:32.816Z,52.50
2019-06-11T13:09:04.362Z,60.50
2019-06-11T13:11:32.939Z,55.10
2019-06-11T13:19:05.949Z,52.10
2019-06-11T13:24:07.978Z,54.20
2019-06-11T13:26:50.520Z,53.10
2019-06-11T13:29:21.856Z,58.50
2019-06-11T13:31:53.141Z,58.70
2019-06-11T13:34:23.301Z,51.60
2019-06-11T13:41:52.378Z,52.60
2019-06-11T13:47:02.878Z,59.30
2019-06-11T13:49:33.841Z,60.20
2019-06-11T13:52:07.236Z,54.00
2019-06-11T13:57:15.400Z,52.70
2019-06-11T13:59:44.256Z,52.40
2019-06-11T14:04:41.871Z,52.90
2019-06-11T14:07:12.012Z,58.40
2019-06-11T14:12:10.383Z,59.20
2019-06-11T14:17:11.068Z,57.40
2019-06-11T14:22:10.881Z,59.60
2019-06-11T14:24:42.079Z,52.60
2019-06-11T14:27:13.744Z,52.40
2019-06-11T14:34:59.085Z,52.40
2019-06-11T14:37:31.967Z,52.80
2019-06-11T14:40:04.035Z,56.90
2019-06-11T14:45:03.005Z,57.30
2019-06-11T14:47:33.257Z,59.50
2019-06-11T14:50:09.231Z,53.30
2019-06-11T14:52:35.961Z,59.30
2019-06-11T14:55:06.510Z,60.10
2019-06-11T14:57:40.723Z,55.10
2019-06-11T15:05:16.366Z,60.60
2019-06-11T15:12:49.045Z,55.70
2019-06-11T15:15:19.143Z,54.70
2019-06-11T15:22:44.757Z,53.00
2019-06-11T15:32:53.732Z,58.80
2019-06-11T15:38:01.297Z,61.20
2019-06-11T15:40:30.921Z,60.40
2019-06-11T15:43:05.936Z,55.90
2019-06-11T15:48:10.105Z,60.10
2019-06-11T15:50:42.489Z,55.90
2019-06-11T15:53:13.897Z,56.40
2019-06-11T16:00:44.595Z,55.40
2019-06-11T16:03:13.960Z,59.80
2019-06-11T16:05:42.228Z,53.80
2019-06-11T16:08:13.172Z,54.30
2019-06-11T16:10:41.768Z,57.70
2019-06-11T16:13:16.600Z,53.80
2019-06-11T16:15:47.948Z,56.50
2019-06-11T16:25:50.854Z,52.70
2019-06-11T16:28:22.648Z,65.30
2019-06-11T16:30:53.194Z,57.00
2019-06-11T16:40:51.750Z,63.20
2019-06-11T16:43:21.808Z,75.40
2019-06-11T16:50:50.790Z,63.10
2019-06-11T16:53:22.243Z,65.40
2019-06-11T16:55:52.008Z,73.40
2019-06-11T17:00:51.686Z,63.80
2019-06-11T17:03:24.182Z,63.90
2019-06-11T17:08:26.124Z,64.30
2019-06-11T17:13:21.398Z,54.90
2019-06-11T17:18:23.493Z,58.50
2019-06-11T17:20:52.154Z,55.10
2019-06-11T17:23:23.710Z,57.30
2019-06-11T17:25:51.883Z,54.90
2019-06-11T17:28:23.935Z,54.80
2019-06-11T17:30:55.180Z,54.80
2019-06-11T17:34:03.553Z,54.90
2019-06-11T17:39:12.082Z,55.00
2019-06-11T17:41:41.897Z,54.70
2019-06-11T17:44:12.310Z,54.40
2019-06-11T17:46:45.685Z,55.00
2019-06-11T17:49:14.004Z,54.30
2019-06-11T17:51:45.748Z,54.70
2019-06-11T17:54:16.159Z,54.60
2019-06-11T17:56:44.415Z,55.00
2019-06-11T17:59:13.635Z,53.90
2019-06-11T18:04:15.221Z,53.50
2019-06-11T18:06:44.283Z,53.50
2019-06-11T18:09:13.059Z,53.50
2019-06-11T18:11:41.551Z,53.90
2019-06-11T18:14:11.341Z,54.40
2019-06-11T18:16:51.141Z,54.50
2019-06-11T18:19:24.698Z,54.70
2019-06-11T18:21:52.605Z,54.60
2019-06-11T18:24:22.989Z,55.00
2019-06-11T18:26:55.713Z,55.50
2019-06-11T18:29:27.914Z,55.30
2019-06-11T18:31:56.744Z,55.30
2019-06-11T18:34:27.038Z,55.90
2019-06-11T18:36:55.907Z,56.00
2019-06-11T18:39:26.395Z,56.00
2019-06-11T18:41:54.889Z,56.00
2019-06-11T18:44:26.034Z,56.30
2019-06-11T18:47:07.046Z,56.30
2019-06-11T18:49:27.750Z,56.40
2019-06-11T18:51:56.694Z,56.70
2019-06-11T18:54:27.779Z,56.60
2019-06-11T18:57:11.123Z,56.60
2019-06-11T18:59:41.204Z,57.00
2019-06-11T19:02:09.903Z,57.00
2019-06-11T19:04:40.484Z,57.10
2019-06-11T19:07:11.076Z,57.60
2019-06-11T19:09:40.499Z,57.80
2019-06-11T19:12:12.093Z,57.80
2019-06-11T19:14:55.185Z,90.20
2019-06-11T19:27:27.433Z,58.40
2019-06-11T19:30:00.559Z,57.90
2019-06-11T19:32:30.893Z,79.60
2019-06-11T19:35:00.348Z,64.50
2019-06-11T19:37:31.717Z,75.20
2019-06-11T19:42:31.422Z,72.40
2019-06-11T19:45:01.378Z,68.00
2019-06-11T19:55:03.197Z,87.30
2019-06-11T20:20:07.154Z,71.80
2019-06-11T20:25:09.909Z,72.80
2019-06-11T20:27:54.649Z,76.80
2019-06-11T20:33:14.644Z,85.20
2019-06-11T20:41:01.460Z,76.60
2019-06-11T20:51:05.067Z,60.90
2019-06-11T20:56:06.663Z,66.30
2019-06-11T21:01:05.695Z,80.20
2019-06-11T21:03:34.794Z,72.10
2019-06-11T21:16:00.738Z,69.50
2019-06-11T21:18:35.092Z,71.80
2019-06-11T21:21:04.931Z,88.20
2019-06-11T21:23:36.752Z,79.20
2019-06-11T21:26:06.546Z,83.10
2019-06-11T21:28:36.986Z,74.00
2019-06-11T21:31:06.685Z,81.80
2019-06-11T21:33:36.649Z,76.10
2019-06-11T21:36:05.571Z,82.10
2019-06-11T21:38:35.164Z,81.70
2019-06-11T21:41:06.067Z,81.70
2019-06-11T21:43:34.693Z,73.90
2019-06-11T21:48:49.517Z,74.80
2019-06-11T21:51:03.001Z,83.30
2019-06-11T21:53:31.561Z,72.50
2019-06-11T21:56:00.554Z,69.00
2019-06-11T21:58:30.257Z,68.90
2019-06-11T22:01:02.423Z,75.80
2019-06-11T22:03:30.811Z,65.10
2019-06-11T22:06:02.099Z,71.90
2019-06-11T22:11:00.414Z,72.50
2019-06-11T22:13:30.570Z,66.50
2019-06-11T22:16:00.822Z,74.30
2019-06-11T22:18:32.176Z,67.20
2019-06-11T22:21:03.824Z,67.30
2019-06-11T22:28:30.311Z,66.50
2019-06-11T22:31:01.483Z,73.40
2019-06-11T22:33:30.896Z,73.10
2019-06-11T22:36:00.944Z,65.50
2019-06-11T22:38:33.200Z,73.90
2019-06-11T22:50:54.034Z,75.30
2019-06-11T22:55:52.239Z,67.10
2019-06-11T23:00:52.127Z,67.00
2019-06-11T23:03:20.034Z,78.40
2019-06-11T23:05:49.677Z,71.10
2019-06-11T23:08:20.283Z,73.10
2019-06-11T23:10:51.250Z,77.70
2019-06-11T23:13:20.709Z,74.00
2019-06-11T23:15:51.691Z,74.20
2019-06-11T23:18:18.674Z,68.20
2019-06-11T23:23:17.658Z,67.00
2019-06-11T23:25:46.914Z,67.20
2019-06-11T23:28:14.612Z,73.00
2019-06-11T23:30:43.304Z,69.30
2019-06-11T23:33:11.373Z,73.40
2019-06-11T23:35:40.633Z,73.20
2019-06-11T23:38:11.429Z,69.10
2019-06-11T23:40:40.220Z,68.30
2019-06-11T23:43:10.157Z,69.70
2019-06-11T23:45:40.486Z,72.10
2019-06-11T23:48:08.008Z,65.80
2019-06-11T23:50:36.397Z,69.30
2019-06-11T23:53:04.070Z,69.80
2019-06-11T23:55:32.227Z,74.00
2019-06-11T23:58:00.981Z,73.40
